Time;durP1;ratioP1;P1;durP2;ratioP2;P2;SDS_P1;SDS_P2;PMS_P1;PMS_P2;Temp;Humidity;BMP_temperature;BMP_pressure;BME280_temperature;BME280_humidity;BME280_pressure;Samples;Min_cycle;Max_cycle;Signal;HPM_P1;HPM_P2
2023/06/15 00:00:26;;;;;;;10.27;8.07;;;;;;;-140.66;100.00;55571.53;5127146;27;20019;-77
2023/06/15 00:03:12;;;;;;;9.60;6.97;;;;;;;-140.66;100.00;55571.53;5121227;27;20023;-77
2023/06/15 00:05:58;;;;;;;10.30;6.95;;;;;;;-140.66;100.00;55571.53;5134501;27;20027;-77
2023/06/15 00:08:43;;;;;;;9.52;7.40;;;;;;;-140.66;100.00;55571.53;5119539;27;20086;-77
2023/06/15 00:11:29;;;;;;;8.80;7.22;;;;;;;-140.66;100.00;55571.53;5119252;27;20031;-77
2023/06/15 00:14:15;;;;;;;10.15;7.07;;;;;;;-140.66;100.00;55571.53;5135381;28;20027;-77
2023/06/15 00:17:01;;;;;;;9.45;7.35;;;;;;;-140.66;100.00;55571.53;5141323;27;20035;-76
2023/06/15 00:19:47;;;;;;;9.40;7.25;;;;;;;-140.66;100.00;55571.53;5128203;27;20133;-77
2023/06/15 00:22:34;;;;;;;8.45;7.20;;;;;;;-140.66;100.00;55571.53;5146742;27;20027;-77
2023/06/15 00:25:20;;;;;;;7.57;6.60;;;;;;;-140.66;100.00;55571.53;5141213;27;20041;-77
2023/06/15 00:28:05;;;;;;;12.80;7.00;;;;;;;-140.66;100.00;55571.53;5140472;27;20102;-76
2023/06/15 00:30:51;;;;;;;25.13;7.50;;;;;;;-140.66;100.00;55571.53;5140899;27;20512;-79
2023/06/15 00:33:37;;;;;;;16.42;7.40;;;;;;;-140.66;100.00;55571.53;5141787;27;20035;-77
2023/06/15 00:36:23;;;;;;;15.02;6.88;;;;;;;-140.66;100.00;55571.53;5140909;27;20023;-77
2023/06/15 00:39:09;;;;;;;8.55;6.70;;;;;;;-140.66;100.00;55571.53;5140487;27;20023;-78
2023/06/15 00:41:54;;;;;;;8.43;6.72;;;;;;;-140.66;100.00;55571.53;5126377;27;20023;-77
2023/06/15 00:44:40;;;;;;;7.40;6.60;;;;;;;-140.66;100.00;55571.53;5126642;27;20023;-77
2023/06/15 00:47:26;;;;;;;10.38;7.30;;;;;;;-140.66;100.00;55571.53;5140479;27;20030;-76
2023/06/15 00:50:18;;;;;;;12.82;7.05;;;;;;;-140.66;100.00;55571.53;5126135;27;20030;-77
2023/06/15 00:53:05;;;;;;;8.10;6.50;;;;;;;-140.66;100.00;55571.53;5140621;27;20023;-77
2023/06/15 00:55:52;;;;;;;11.40;6.47;;;;;;;-140.66;100.00;55571.53;5140542;27;20095;-77
2023/06/15 00:58:38;;;;;;;12.45;7.05;;;;;;;-140.66;100.00;55571.53;5140588;27;20477;-78
2023/06/15 01:01:24;;;;;;;8.13;6.53;;;;;;;-140.66;100.00;55571.53;5125274;27;20023;-77
2023/06/15 01:04:11;;;;;;;8.77;6.57;;;;;;;-140.66;100.00;55571.53;5140654;27;20360;-77
2023/06/15 01:07:01;;;;;;;11.15;7.70;;;;;;;-140.66;100.00;55571.53;5140920;27;20050;-76
2023/06/15 01:09:48;;;;;;;9.23;7.40;;;;;;;-140.66;100.00;55571.53;5126145;27;20034;-77
2023/06/15 01:12:40;;;;;;;8.95;6.68;;;;;;;-140.66;100.00;55571.53;5126256;27;20026;-78
2023/06/15 01:15:27;;;;;;;9.32;7.22;;;;;;;-140.66;100.00;55571.53;5125329;27;20019;-77
2023/06/15 01:18:20;;;;;;;10.90;6.95;;;;;;;-140.66;100.00;55571.53;5140952;27;20110;-76
2023/06/15 01:21:06;;;;;;;8.48;6.85;;;;;;;-140.66;100.00;55571.53;5126165;27;20388;-77
2023/06/15 01:24:23;;;;;;;10.80;7.70;;;;;;;-140.66;100.00;55571.53;5141189;27;20046;-78
2023/06/15 01:27:09;;;;;;;9.52;7.72;;;;;;;-140.66;100.00;55571.53;5141162;27;20381;-77
2023/06/15 01:29:55;;;;;;;10.07;7.38;;;;;;;-140.66;100.00;55571.53;5136764;27;20375;-78
2023/06/15 01:32:41;;;;;;;8.68;7.43;;;;;;;-140.66;100.00;55571.53;5136876;27;20031;-76
2023/06/15 01:35:27;;;;;;;11.90;7.55;;;;;;;-140.66;100.00;55571.53;5121986;27;20356;-77
2023/06/15 01:38:13;;;;;;;10.93;8.40;;;;;;;-140.66;100.00;55571.53;5122140;27;20019;-77
2023/06/15 01:41:00;;;;;;;11.43;8.02;;;;;;;-140.66;100.00;55571.53;5137641;27;20059;-77
2023/06/15 01:43:46;;;;;;;10.52;8.30;;;;;;;-140.66;100.00;55571.53;5138241;27;20029;-78
2023/06/15 01:46:33;;;;;;;14.95;10.07;;;;;;;-140.66;100.00;55571.53;5137156;27;20023;-77
2023/06/15 01:49:19;;;;;;;12.48;8.93;;;;;;;-140.66;100.00;55571.53;5137683;27;20056;-77
2023/06/15 01:52:06;;;;;;;13.98;9.43;;;;;;;-140.66;100.00;55571.53;5122393;27;20027;-76
2023/06/15 01:54:51;;;;;;;15.93;9.40;;;;;;;-140.66;100.00;55571.53;5121955;27;20172;-77
2023/06/15 01:57:39;;;;;;;12.63;9.68;;;;;;;-140.66;100.00;55571.53;5122704;27;20027;-76
2023/06/15 02:00:25;;;;;;;12.98;9.23;;;;;;;-140.66;100.00;55571.53;5136257;27;20052;-78
2023/06/15 02:03:11;;;;;;;12.75;9.30;;;;;;;-140.66;100.00;55571.53;5122116;27;20106;-77
2023/06/15 02:05:57;;;;;;;12.02;8.85;;;;;;;-140.66;100.00;55571.53;5136931;27;20019;-77
2023/06/15 02:08:42;;;;;;;17.85;11.20;;;;;;;-140.66;100.00;55571.53;5142527;27;20388;-77
2023/06/15 02:11:28;;;;;;;16.55;10.18;;;;;;;-140.66;100.00;55571.53;5137027;27;20027;-78
2023/06/15 02:14:17;;;;;;;12.55;10.05;;;;;;;-140.66;100.00;55571.53;5137961;27;20046;-76
2023/06/15 02:17:03;;;;;;;17.40;12.02;;;;;;;-140.66;100.00;55571.53;5136400;27;20030;-78
2023/06/15 02:19:49;;;;;;;16.23;11.38;;;;;;;-140.66;100.00;55571.53;5139944;27;20127;-77
2023/06/15 02:22:35;;;;;;;19.25;12.18;;;;;;;-140.66;100.00;55571.53;5126239;27;20023;-77
2023/06/15 02:25:20;;;;;;;18.15;12.52;;;;;;;-140.66;100.00;55571.53;5141335;27;20093;-77
2023/06/15 02:28:06;;;;;;;21.02;11.90;;;;;;;-140.66;100.00;55571.53;5143110;27;20348;-77
2023/06/15 02:30:52;;;;;;;20.67;12.15;;;;;;;-140.66;100.00;55571.53;5144415;27;20027;-77
2023/06/15 02:33:38;;;;;;;15.80;11.40;;;;;;;-140.66;100.00;55571.53;5142615;27;20023;-77
2023/06/15 02:36:24;;;;;;;20.48;11.90;;;;;;;-140.66;100.00;55571.53;5142658;27;20061;-77
2023/06/15 02:39:10;;;;;;;18.17;11.82;;;;;;;-140.66;100.00;55571.53;5131815;27;20050;-76
2023/06/15 02:41:56;;;;;;;19.95;11.75;;;;;;;-140.66;100.00;55571.53;5146894;27;20046;-77
2023/06/15 02:44:42;;;;;;;15.70;11.77;;;;;;;-140.66;100.00;55571.53;5150566;27;20023;-76
2023/06/15 02:47:29;;;;;;;16.80;11.38;;;;;;;-140.66;100.00;55571.53;5148313;27;20133;-76
2023/06/15 02:50:14;;;;;;;18.80;12.45;;;;;;;-140.66;100.00;55571.53;5146755;27;20128;-76
2023/06/15 02:53:00;;;;;;;18.98;12.52;;;;;;;-140.66;100.00;55571.53;5142936;27;20424;-76
2023/06/15 02:55:46;;;;;;;17.63;12.02;;;;;;;-140.66;100.00;55571.53;5130329;27;20016;-78
2023/06/15 02:58:32;;;;;;;22.98;14.10;;;;;;;-140.66;100.00;55571.53;5144633;27;20034;-76
2023/06/15 03:01:18;;;;;;;22.13;14.68;;;;;;;-140.66;100.00;55571.53;5137366;27;20098;-76
2023/06/15 03:04:09;;;;;;;22.02;15.10;;;;;;;-140.66;100.00;55571.53;5133177;27;20090;-76
2023/06/15 03:06:56;;;;;;;27.55;14.68;;;;;;;-140.66;100.00;55571.53;5137269;27;20034;-77
2023/06/15 03:09:46;;;;;;;22.90;14.00;;;;;;;-140.66;100.00;55571.53;5136709;27;20076;-76
2023/06/15 03:12:32;;;;;;;24.45;14.02;;;;;;;-140.66;100.00;55571.53;5139458;27;20102;-77
2023/06/15 03:15:18;;;;;;;28.00;14.02;;;;;;;-140.66;100.00;55571.53;5136911;27;20129;-78
2023/06/15 03:18:04;;;;;;;27.60;13.13;;;;;;;-140.66;100.00;55571.53;5135723;27;20080;-78
2023/06/15 03:20:57;;;;;;;22.38;13.75;;;;;;;-140.66;100.00;55571.53;5135582;27;20070;-76
2023/06/15 03:23:44;;;;;;;24.10;14.15;;;;;;;-140.66;100.00;55571.53;5135597;27;20027;-79
2023/06/15 03:26:33;;;;;;;24.30;13.52;;;;;;;-140.66;100.00;55571.53;5121026;27;20050;-77
2023/06/15 03:29:19;;;;;;;19.77;13.40;;;;;;;-140.66;100.00;55571.53;5137045;27;20031;-79
2023/06/15 03:32:08;;;;;;;22.23;12.75;;;;;;;-140.66;100.00;55571.53;5122565;27;20027;-77
2023/06/15 03:34:57;;;;;;;21.88;13.27;;;;;;;-140.66;100.00;55571.53;5140494;27;20033;-77
2023/06/15 03:37:43;;;;;;;26.98;13.48;;;;;;;-140.66;100.00;55571.53;5148353;27;20039;-77
2023/06/15 03:40:29;;;;;;;22.65;13.55;;;;;;;-140.66;100.00;55571.53;5134619;27;20031;-78
2023/06/15 03:43:15;;;;;;;26.65;13.75;;;;;;;-140.66;100.00;55571.53;5149419;27;20027;-77
2023/06/15 03:46:01;;;;;;;26.10;14.30;;;;;;;-140.66;100.00;55571.53;5143843;27;20019;-78
2023/06/15 03:48:48;;;;;;;22.15;13.70;;;;;;;-140.66;100.00;55571.53;5146530;27;20098;-77
2023/06/15 03:51:33;;;;;;;26.08;15.77;;;;;;;-140.66;100.00;55571.53;5146105;27;20041;-77
2023/06/15 03:54:19;;;;;;;25.35;14.30;;;;;;;-140.66;100.00;55571.53;5134933;27;20364;-77
2023/06/15 03:57:06;;;;;;;26.48;14.60;;;;;;;-140.66;100.00;55571.53;5135123;27;20088;-77
2023/06/15 03:59:52;;;;;;;23.90;13.85;;;;;;;-140.66;100.00;55571.53;5134171;27;20418;-76
2023/06/15 04:02:38;;;;;;;31.80;13.77;;;;;;;-140.66;100.00;55571.53;5134958;27;20038;-75
2023/06/15 04:05:23;;;;;;;22.63;13.90;;;;;;;-140.66;100.00;55571.53;5134196;27;20050;-76
2023/06/15 04:08:09;;;;;;;25.25;13.15;;;;;;;-140.66;100.00;55571.53;5134535;27;20464;-76
2023/06/15 04:10:56;;;;;;;17.85;12.80;;;;;;;-140.66;100.00;55571.53;5135037;27;20360;-77
2023/06/15 04:13:42;;;;;;;18.73;12.10;;;;;;;-140.66;100.00;55571.53;5134865;27;20030;-77
2023/06/15 04:16:28;;;;;;;18.17;11.57;;;;;;;-140.66;100.00;55571.53;5134425;28;20024;-77
2023/06/15 04:19:14;;;;;;;16.60;11.00;;;;;;;-140.66;100.00;55571.53;5134057;28;20103;-77
2023/06/15 04:21:59;;;;;;;17.92;10.38;;;;;;;-140.66;100.00;55571.53;5135501;28;20031;-76
2023/06/15 04:24:45;;;;;;;15.85;10.27;;;;;;;-140.66;100.00;55571.53;5134483;28;20015;-77
2023/06/15 04:27:34;;;;;;;14.77;10.13;;;;;;;-140.66;100.00;55571.53;5134569;28;20448;-77
2023/06/15 04:30:24;;;;;;;13.00;9.45;;;;;;;-140.66;100.00;55571.53;5134378;28;20172;-78
2023/06/15 04:33:13;;;;;;;16.73;9.50;;;;;;;-140.66;100.00;55571.53;5134672;28;20554;-77
2023/06/15 04:36:01;;;;;;;14.77;9.45;;;;;;;-140.66;100.00;55571.53;5134571;28;20019;-77
2023/06/15 04:38:48;;;;;;;14.93;9.07;;;;;;;-140.66;100.00;55571.53;5134616;28;20035;-78
2023/06/15 04:41:35;;;;;;;12.40;8.30;;;;;;;-140.66;100.00;55571.53;5119459;28;20033;-77
2023/06/15 04:44:20;;;;;;;14.35;9.00;;;;;;;-140.66;100.00;55571.53;5135123;28;20035;-78
2023/06/15 04:47:07;;;;;;;12.40;8.88;;;;;;;-140.66;100.00;55571.53;5134797;28;20019;-77
2023/06/15 04:49:52;;;;;;;19.35;8.85;;;;;;;-140.66;100.00;55571.53;5133919;28;20023;-76
2023/06/15 04:52:40;;;;;;;15.25;9.15;;;;;;;-140.66;100.00;55571.53;5133314;28;20024;-77
2023/06/15 04:55:25;;;;;;;17.63;12.80;;;;;;;-140.66;100.00;55571.53;5133563;28;20028;-77
2023/06/15 04:58:12;;;;;;;22.05;13.50;;;;;;;-140.66;100.00;55571.53;5134090;28;20178;-78
2023/06/15 05:00:58;;;;;;;16.77;12.10;;;;;;;-140.66;100.00;55571.53;5119527;28;20034;-77
2023/06/15 05:03:44;;;;;;;22.75;13.25;;;;;;;-140.66;100.00;55571.53;5135343;27;20038;-76
2023/06/15 05:06:30;;;;;;;18.27;13.13;;;;;;;-140.66;100.00;55571.53;5138263;27;20106;-78
2023/06/15 05:09:15;;;;;;;21.92;12.73;;;;;;;-140.66;100.00;55571.53;5138499;27;20114;-78
2023/06/15 05:12:02;;;;;;;18.92;12.35;;;;;;;-140.66;100.00;55571.53;5137358;27;20019;-78
2023/06/15 05:14:47;;;;;;;18.23;11.50;;;;;;;-140.66;100.00;55571.53;5157039;27;20018;-77
2023/06/15 05:17:33;;;;;;;20.17;10.93;;;;;;;-140.66;100.00;55571.53;5143095;27;20443;-78
2023/06/15 05:20:19;;;;;;;14.88;9.98;;;;;;;-140.66;100.00;55571.53;5137868;27;20051;-78
2023/06/15 05:23:05;;;;;;;15.38;8.88;;;;;;;-140.66;100.00;55571.53;5137195;27;20455;-79
2023/06/15 05:25:51;;;;;;;17.17;9.27;;;;;;;-140.66;100.00;55571.53;5137764;27;20436;-77
2023/06/15 05:28:37;;;;;;;12.20;8.95;;;;;;;-140.66;100.00;55571.53;5137638;27;20027;-79
2023/06/15 05:31:23;;;;;;;10.23;8.07;;;;;;;-140.66;100.00;55571.53;5138100;27;20039;-77
2023/06/15 05:34:08;;;;;;;11.20;7.90;;;;;;;-140.66;100.00;55571.53;5154567;27;20034;-76
2023/06/15 05:36:54;;;;;;;14.98;8.57;;;;;;;-140.66;100.00;55571.53;5123643;27;20035;-78
2023/06/15 05:39:40;;;;;;;9.98;7.90;;;;;;;-140.66;100.00;55571.53;5121627;27;20030;-78
2023/06/15 05:42:26;;;;;;;12.30;8.30;;;;;;;-140.66;100.00;55571.53;5136959;27;20360;-78
2023/06/15 05:45:12;;;;;;;13.10;8.75;;;;;;;-140.66;100.00;55571.53;5122493;27;20039;-78
2023/06/15 05:47:58;;;;;;;13.57;7.25;;;;;;;-140.66;100.00;55571.53;5121815;27;20065;-77
2023/06/15 05:50:43;;;;;;;13.00;6.68;;;;;;;-140.66;100.00;55571.53;5137805;27;20024;-77
2023/06/15 05:53:29;;;;;;;12.27;6.65;;;;;;;-140.66;100.00;55571.53;5137365;27;20042;-78
2023/06/15 05:56:15;;;;;;;13.25;6.28;;;;;;;-140.66;100.00;55571.53;5136946;27;20058;-78
2023/06/15 05:59:01;;;;;;;8.27;5.60;;;;;;;-140.66;100.00;55571.53;5137844;27;20106;-76
2023/06/15 06:01:47;;;;;;;10.43;5.15;;;;;;;-140.66;100.00;55571.53;5122062;27;20038;-77
2023/06/15 06:04:33;;;;;;;7.40;4.63;;;;;;;-140.66;100.00;55571.53;5136754;27;20047;-77
2023/06/15 06:07:19;;;;;;;9.15;4.82;;;;;;;-140.66;100.00;55571.53;5137681;27;20042;-76
2023/06/15 06:10:06;;;;;;;7.75;4.72;;;;;;;-140.66;100.00;55571.53;5121795;27;20102;-78
2023/06/15 06:12:52;;;;;;;10.57;4.90;;;;;;;-140.66;100.00;55571.53;5136026;27;20027;-78
2023/06/15 06:15:38;;;;;;;12.57;5.15;;;;;;;-140.66;100.00;55571.53;5136837;27;20027;-77
2023/06/15 06:18:23;;;;;;;8.05;4.95;;;;;;;-140.66;100.00;55571.53;5121348;27;20041;-77
2023/06/15 06:21:09;;;;;;;9.27;5.05;;;;;;;-140.66;100.00;55571.53;5136912;27;20074;-77
2023/06/15 06:23:55;;;;;;;8.48;4.68;;;;;;;-140.66;100.00;55571.53;5122030;27;20027;-78
2023/06/15 06:26:41;;;;;;;13.07;4.57;;;;;;;-140.66;100.00;55571.53;5136651;27;20050;-77
2023/06/15 06:29:27;;;;;;;8.02;4.70;;;;;;;-140.66;100.00;55571.53;5136854;27;20027;-77
2023/06/15 06:32:12;;;;;;;7.57;4.63;;;;;;;-140.66;100.00;55571.53;5137128;27;20099;-77
2023/06/15 06:34:58;;;;;;;11.90;5.82;;;;;;;-140.66;100.00;55571.53;5136811;27;20423;-78
2023/06/15 06:37:44;;;;;;;9.73;4.80;;;;;;;-140.66;100.00;55571.53;5135282;27;20031;-78
2023/06/15 06:40:30;;;;;;;8.07;6.03;;;;;;;-140.66;100.00;55571.53;5136292;27;20130;-75
2023/06/15 06:43:16;;;;;;;6.78;4.50;;;;;;;-140.66;100.00;55571.53;5135831;27;20045;-78
2023/06/15 06:46:02;;;;;;;7.20;4.78;;;;;;;-140.66;100.00;55571.53;5121311;27;20023;-77
2023/06/15 06:48:49;;;;;;;7.03;4.80;;;;;;;-140.66;100.00;55571.53;5136504;27;20095;-76
2023/06/15 06:51:36;;;;;;;8.73;5.05;;;;;;;-140.66;100.00;55571.53;5137007;27;20401;-77
2023/06/15 06:54:21;;;;;;;6.68;4.55;;;;;;;-140.66;100.00;55571.53;5120801;27;20027;-77
2023/06/15 06:57:07;;;;;;;6.45;4.75;;;;;;;-140.66;100.00;55571.53;5120976;27;20027;-77
2023/06/15 06:59:53;;;;;;;7.97;4.60;;;;;;;-140.66;100.00;55571.53;5119815;27;20114;-78
2023/06/15 07:02:38;;;;;;;4.70;4.15;;;;;;;-140.66;100.00;55571.53;5120885;27;20035;-78
2023/06/15 07:05:24;;;;;;;10.45;4.70;;;;;;;-140.66;100.00;55571.53;5120607;27;20022;-77
2023/06/15 07:08:10;;;;;;;15.80;4.80;;;;;;;-140.66;100.00;55571.53;5120725;27;20023;-76
2023/06/15 07:10:56;;;;;;;12.77;5.38;;;;;;;-140.66;100.00;55571.53;5134827;27;20023;-77
2023/06/15 07:13:41;;;;;;;6.13;4.45;;;;;;;-140.66;100.00;55571.53;5135616;27;20035;-78
2023/06/15 07:16:27;;;;;;;15.70;4.95;;;;;;;-140.66;100.00;55571.53;5134979;27;20035;-78
2023/06/15 07:19:13;;;;;;;11.20;4.53;;;;;;;-140.66;100.00;55571.53;5119988;27;20066;-78
2023/06/15 07:21:59;;;;;;;7.88;4.10;;;;;;;-140.66;100.00;55571.53;5120749;27;20095;-77
2023/06/15 07:24:44;;;;;;;9.15;4.13;;;;;;;-140.66;100.00;55571.53;5119811;27;20021;-76
2023/06/15 07:27:30;;;;;;;8.15;4.65;;;;;;;-140.66;100.00;55571.53;5120076;27;20042;-77
2023/06/15 07:30:16;;;;;;;4.25;3.85;;;;;;;-140.66;100.00;55571.53;5135051;27;20091;-77
2023/06/15 07:33:02;;;;;;;7.05;4.32;;;;;;;-140.66;100.00;55571.53;5135013;27;20034;-77
2023/06/15 07:35:48;;;;;;;4.53;4.03;;;;;;;-140.66;100.00;55571.53;5134430;27;20110;-76
2023/06/15 07:38:33;;;;;;;9.68;4.00;;;;;;;-140.66;100.00;55571.53;5134500;27;20023;-78
2023/06/15 07:41:20;;;;;;;9.75;4.03;;;;;;;-140.66;100.00;55571.53;5134604;27;20073;-77
2023/06/15 07:44:11;;;;;;;10.20;4.32;;;;;;;-140.66;100.00;55571.53;5135505;27;20042;-77
2023/06/15 07:46:57;;;;;;;13.43;4.40;;;;;;;-140.66;100.00;55571.53;5135164;27;20457;-78
2023/06/15 07:49:43;;;;;;;6.47;4.07;;;;;;;-140.66;100.00;55571.53;5134674;27;20368;-78
2023/06/15 07:52:29;;;;;;;8.73;4.03;;;;;;;-140.66;100.00;55571.53;5134529;27;20445;-77
2023/06/15 07:55:14;;;;;;;20.42;4.80;;;;;;;-140.66;100.00;55571.53;5134184;27;20353;-78
2023/06/15 07:58:00;;;;;;;15.18;5.07;;;;;;;-140.66;100.00;55571.53;5135537;27;20100;-79
2023/06/15 08:00:46;;;;;;;19.58;4.38;;;;;;;-140.66;100.00;55571.53;5119193;27;20027;-78
2023/06/15 08:03:32;;;;;;;5.47;4.20;;;;;;;-140.66;100.00;55571.53;5135193;27;20055;-77
2023/06/15 08:06:17;;;;;;;6.68;3.25;;;;;;;-140.66;100.00;55571.53;5134440;27;20046;-77
2023/06/15 08:09:04;;;;;;;5.30;4.18;;;;;;;-140.66;100.00;55571.53;5135056;27;20019;-78
2023/06/15 08:11:50;;;;;;;4.65;3.65;;;;;;;-140.66;100.00;55571.53;5134572;27;20019;-77
2023/06/15 08:14:36;;;;;;;5.35;3.40;;;;;;;-140.66;100.00;55571.53;5134229;27;20019;-76
2023/06/15 08:17:22;;;;;;;7.43;4.10;;;;;;;-140.66;100.00;55571.53;5134821;28;20360;-77
2023/06/15 08:20:09;;;;;;;6.95;4.00;;;;;;;-140.66;100.00;55571.53;5118913;28;20342;-76
2023/06/15 08:22:54;;;;;;;5.55;3.80;;;;;;;-140.66;100.00;55571.53;5133781;28;20571;-78
2023/06/15 08:25:41;;;;;;;5.65;3.70;;;;;;;-140.66;100.00;55571.53;5134685;28;20035;-77
2023/06/15 08:28:26;;;;;;;6.93;4.00;;;;;;;-140.66;100.00;55571.53;5134461;28;20023;-77
2023/06/15 08:31:12;;;;;;;6.55;3.75;;;;;;;-140.66;100.00;55571.53;5134137;28;20018;-77
2023/06/15 08:33:58;;;;;;;10.50;5.07;;;;;;;-140.66;100.00;55571.53;5139438;28;20364;-78
2023/06/15 08:36:44;;;;;;;5.53;3.55;;;;;;;-140.66;100.00;55571.53;5149204;27;20019;-76
2023/06/15 08:39:30;;;;;;;5.38;3.55;;;;;;;-140.66;100.00;55571.53;5142542;27;20051;-78
2023/06/15 08:42:17;;;;;;;9.20;4.20;;;;;;;-140.66;100.00;55571.53;5125962;27;20102;-78
2023/06/15 08:45:05;;;;;;;5.50;3.90;;;;;;;-140.66;100.00;55571.53;5139613;27;20023;-78
2023/06/15 08:47:55;;;;;;;10.70;4.10;;;;;;;-140.66;100.00;55571.53;5122648;27;20037;-77
2023/06/15 08:50:41;;;;;;;9.35;3.97;;;;;;;-140.66;100.00;55571.53;5123464;27;20046;-78
2023/06/15 08:53:29;;;;;;;6.72;3.80;;;;;;;-140.66;100.00;55571.53;5123928;27;20034;-78
2023/06/15 08:56:14;;;;;;;8.15;3.70;;;;;;;-140.66;100.00;55571.53;5155248;27;20078;-78
2023/06/15 08:59:00;;;;;;;5.18;3.72;;;;;;;-140.66;100.00;55571.53;5138701;27;20023;-78
2023/06/15 09:01:46;;;;;;;4.57;3.60;;;;;;;-140.66;100.00;55571.53;5122446;27;20019;-77
2023/06/15 09:04:32;;;;;;;6.22;3.92;;;;;;;-140.66;100.00;55571.53;5138636;27;20360;-77
2023/06/15 09:07:19;;;;;;;6.72;3.42;;;;;;;-140.66;100.00;55571.53;5138459;27;20019;-78
2023/06/15 09:10:15;;;;;;;4.93;3.90;;;;;;;-140.66;100.00;55571.53;5137225;27;20039;-78
2023/06/15 09:13:00;;;;;;;8.57;3.78;;;;;;;-140.66;100.00;55571.53;5138616;27;20393;-76
2023/06/15 09:15:58;;;;;;;6.90;3.90;;;;;;;-140.66;100.00;55571.53;5137894;27;20027;-77
2023/06/15 09:18:45;;;;;;;8.75;3.50;;;;;;;-140.66;100.00;55571.53;5137574;27;20469;-78
2023/06/15 09:21:31;;;;;;;7.70;4.05;;;;;;;-140.66;100.00;55571.53;5137495;27;20463;-77
2023/06/15 09:24:20;;;;;;;8.00;3.95;;;;;;;-140.66;100.00;55571.53;5137218;27;20027;-77
2023/06/15 09:27:15;;;;;;;7.68;3.90;;;;;;;-140.66;100.00;55571.53;5138132;27;20031;-77
2023/06/15 09:30:03;;;;;;;8.40;3.70;;;;;;;-140.66;100.00;55571.53;5123033;27;20449;-77
2023/06/15 09:32:51;;;;;;;11.27;4.40;;;;;;;-140.66;100.00;55571.53;5121141;27;20054;-77
2023/06/15 09:35:37;;;;;;;6.20;3.75;;;;;;;-140.66;100.00;55571.53;5121731;27;20114;-78
2023/06/15 09:38:24;;;;;;;5.78;3.53;;;;;;;-140.66;100.00;55571.53;5122011;27;20029;-77
2023/06/15 09:41:11;;;;;;;9.70;4.38;;;;;;;-140.66;100.00;55571.53;5136446;27;20091;-79
2023/06/15 09:44:00;;;;;;;7.13;3.90;;;;;;;-140.66;100.00;55571.53;5137277;27;20026;-77
2023/06/15 09:46:49;;;;;;;4.35;3.65;;;;;;;-140.66;100.00;55571.53;5139004;27;20019;-77
2023/06/15 09:49:35;;;;;;;13.20;4.05;;;;;;;-140.66;100.00;55571.53;5122606;27;20031;-77
2023/06/15 09:52:20;;;;;;;6.65;3.70;;;;;;;-140.66;100.00;55571.53;5137706;27;20030;-76
2023/06/15 09:55:07;;;;;;;5.65;3.70;;;;;;;-140.66;100.00;55571.53;5136459;27;20172;-77
2023/06/15 09:57:56;;;;;;;8.40;3.92;;;;;;;-140.66;100.00;55571.53;5136305;27;20360;-77
2023/06/15 10:00:42;;;;;;;8.38;4.07;;;;;;;-140.66;100.00;55571.53;5107164;27;20448;-77
2023/06/15 10:03:31;;;;;;;6.30;3.58;;;;;;;-140.66;100.00;55571.53;5136356;27;20027;-77
2023/06/15 10:06:17;;;;;;;5.40;3.90;;;;;;;-140.66;100.00;55571.53;5136256;27;20015;-76
2023/06/15 10:09:06;;;;;;;6.50;3.90;;;;;;;-140.66;100.00;55571.53;5108418;27;20022;-76
2023/06/15 10:11:57;;;;;;;6.35;3.58;;;;;;;-140.66;100.00;55571.53;5136406;27;20031;-78
2023/06/15 10:14:48;;;;;;;7.18;3.75;;;;;;;-140.66;100.00;55571.53;5136674;27;20037;-77
2023/06/15 10:17:35;;;;;;;9.43;4.25;;;;;;;-140.66;100.00;55571.53;5136157;27;20026;-77
2023/06/15 10:20:23;;;;;;;4.93;3.92;;;;;;;-140.66;100.00;55571.53;5135606;27;20078;-76
2023/06/15 10:23:15;;;;;;;7.28;3.88;;;;;;;-140.66;100.00;55571.53;5136318;27;20023;-77
2023/06/15 10:26:01;;;;;;;7.63;3.80;;;;;;;-140.66;100.00;55571.53;5135625;27;20027;-75
2023/06/15 10:28:53;;;;;;;10.05;3.70;;;;;;;-140.66;100.00;55571.53;5121948;27;20038;-76
2023/06/15 10:31:49;;;;;;;5.05;3.53;;;;;;;-140.66;100.00;55571.53;5121199;27;20133;-77
2023/06/15 10:34:50;;;;;;;4.30;3.30;;;;;;;-140.66;100.00;55571.53;5135719;27;20027;-76
2023/06/15 10:37:42;;;;;;;11.80;4.00;;;;;;;-140.66;100.00;55571.53;5122263;27;20038;-77
2023/06/15 10:40:36;;;;;;;8.35;3.58;;;;;;;-140.66;100.00;55571.53;5120805;27;20022;-77
2023/06/15 10:43:25;;;;;;;7.35;3.67;;;;;;;-140.66;100.00;55571.53;5121536;27;20353;-77
2023/06/15 10:46:25;;;;;;;9.35;3.83;;;;;;;-140.66;100.00;55571.53;5135822;27;20025;-79
2023/06/15 10:49:11;;;;;;;4.57;3.40;;;;;;;-140.66;100.00;55571.53;5135384;27;20038;-77
2023/06/15 10:51:57;;;;;;;4.00;3.28;;;;;;;-140.66;100.00;55571.53;5135602;27;20030;-76
2023/06/15 10:54:44;;;;;;;4.93;3.65;;;;;;;-140.66;100.00;55571.53;5136230;27;20119;-76
2023/06/15 10:57:35;;;;;;;7.45;3.67;;;;;;;-140.66;100.00;55571.53;5120765;27;20436;-76
2023/06/15 11:00:27;;;;;;;3.75;3.28;;;;;;;-140.66;100.00;55571.53;5120578;27;20027;-77
2023/06/15 11:03:26;;;;;;;7.72;3.47;;;;;;;-140.66;100.00;55571.53;5120298;27;20031;-76
2023/06/15 11:06:21;;;;;;;9.30;3.42;;;;;;;-140.66;100.00;55571.53;5136335;27;20041;-77
2023/06/15 11:09:12;;;;;;;4.88;2.92;;;;;;;-140.66;100.00;55571.53;5134790;27;20341;-77
2023/06/15 11:11:58;;;;;;;5.47;3.17;;;;;;;-140.66;100.00;55571.53;5134948;27;20035;-77
2023/06/15 11:14:51;;;;;;;3.47;3.05;;;;;;;-140.66;100.00;55571.53;5135049;27;20122;-78
2023/06/15 11:17:52;;;;;;;4.10;3.20;;;;;;;-140.66;100.00;55571.53;5135938;27;20057;-77
2023/06/15 11:20:44;;;;;;;9.25;4.25;;;;;;;-140.66;100.00;55571.53;5134344;27;20039;-78
2023/06/15 11:23:33;;;;;;;6.43;3.33;;;;;;;-140.66;100.00;55571.53;5135654;27;20019;-78
2023/06/15 11:26:18;;;;;;;9.95;3.42;;;;;;;-140.66;100.00;55571.53;5141313;27;20086;-77
2023/06/15 11:29:07;;;;;;;5.50;3.03;;;;;;;-140.66;100.00;55571.53;5151603;27;20054;-77
2023/06/15 11:31:54;;;;;;;6.57;3.40;;;;;;;-140.66;100.00;55571.53;5139790;27;20372;-77
2023/06/15 11:34:42;;;;;;;4.60;3.33;;;;;;;-140.66;100.00;55571.53;5136772;27;20110;-78
2023/06/15 11:37:28;;;;;;;5.70;3.10;;;;;;;-140.66;100.00;55571.53;5121453;27;20031;-76
2023/06/15 11:40:17;;;;;;;5.53;3.20;;;;;;;-140.66;100.00;55571.53;5135739;27;20029;-78
2023/06/15 11:43:07;;;;;;;6.53;3.38;;;;;;;-140.66;100.00;55571.53;5119804;27;20023;-76
2023/06/15 11:45:53;;;;;;;7.18;3.10;;;;;;;-140.66;100.00;55571.53;5135433;27;20041;-77
2023/06/15 11:48:40;;;;;;;6.50;3.22;;;;;;;-140.66;100.00;55571.53;5146526;27;20023;-76
2023/06/15 11:51:26;;;;;;;8.18;3.08;;;;;;;-140.66;100.00;55571.53;5142853;27;20030;-78
2023/06/15 11:54:12;;;;;;;7.90;3.08;;;;;;;-140.66;100.00;55571.53;5120112;27;20031;-78
2023/06/15 11:56:58;;;;;;;5.40;3.33;;;;;;;-140.66;100.00;55571.53;5134752;27;20034;-77
2023/06/15 11:59:43;;;;;;;9.35;3.10;;;;;;;-140.66;100.00;55571.53;5110693;27;20110;-78
2023/06/15 12:02:29;;;;;;;6.03;2.75;;;;;;;-140.66;100.00;55571.53;5133170;27;20512;-78
2023/06/15 12:05:17;;;;;;;6.95;3.53;;;;;;;-140.66;100.00;55571.53;5119042;27;20341;-78
2023/06/15 12:08:04;;;;;;;5.60;2.60;;;;;;;-140.66;100.00;55571.53;5134695;27;20034;-74
2023/06/15 12:10:51;;;;;;;8.40;3.03;;;;;;;-140.66;100.00;55571.53;5134184;27;20023;-75
2023/06/15 12:13:38;;;;;;;4.88;2.80;;;;;;;-140.66;100.00;55571.53;5133375;27;20031;-75
2023/06/15 12:16:23;;;;;;;5.97;3.10;;;;;;;-140.66;100.00;55571.53;5135505;27;20034;-75
2023/06/15 12:19:10;;;;;;;11.30;3.28;;;;;;;-140.66;100.00;55571.53;5134279;27;20043;-74
2023/06/15 12:21:59;;;;;;;5.38;3.08;;;;;;;-140.66;100.00;55571.53;5119967;28;20105;-76
2023/06/15 12:24:48;;;;;;;6.97;3.42;;;;;;;-140.66;100.00;55571.53;5134262;28;20023;-75
2023/06/15 12:27:43;;;;;;;7.53;3.40;;;;;;;-140.66;100.00;55571.53;5134676;28;20027;-78
2023/06/15 12:30:32;;;;;;;4.88;2.90;;;;;;;-140.66;100.00;55571.53;5119776;28;20073;-78
2023/06/15 12:33:31;;;;;;;4.78;3.05;;;;;;;-140.66;100.00;55571.53;5133849;28;20023;-77